Time;durP1;ratioP1;P1;durP2;ratioP2;P2;SDS_P1;SDS_P2;PMS_P1;PMS_P2;Temp;Humidity;BMP_temperature;BMP_pressure;BME280_temperature;BME280_humidity;BME280_pressure;Samples;Min_cycle;Max_cycle;Signal;HPM_P1;HPM_P2
2021/09/18 00:01:47;;;;;;;8.90;6.78;;;15.10;99.90;;;;;;5080499;28;20469;-90
2021/09/18 00:04:13;;;;;;;8.10;7.25;;;15.10;99.90;;;;;;5080780;28;20521;-89
2021/09/18 00:06:40;;;;;;;8.77;6.75;;;15.10;99.90;;;;;;5047424;28;20043;-88
2021/09/18 00:09:07;;;;;;;7.72;6.47;;;15.10;99.90;;;;;;5070864;28;20047;-89
2021/09/18 00:11:34;;;;;;;9.70;6.55;;;15.10;99.90;;;;;;5080641;28;20367;-86
2021/09/18 00:14:00;;;;;;;7.18;5.97;;;15.00;99.90;;;;;;5070887;28;20052;-87
2021/09/18 00:16:27;;;;;;;7.93;6.57;;;15.00;99.90;;;;;;5083153;28;20035;-88
2021/09/18 00:18:56;;;;;;;7.70;6.13;;;15.00;99.90;;;;;;5080081;28;20098;-88
2021/09/18 00:21:23;;;;;;;8.60;6.30;;;14.90;99.90;;;;;;5059126;28;20067;-89
2021/09/18 00:23:54;;;;;;;7.65;6.63;;;14.90;99.90;;;;;;5092744;28;20032;-89
2021/09/18 00:26:22;;;;;;;7.13;6.00;;;14.90;99.90;;;;;;5066308;28;20495;-90
2021/09/18 00:28:48;;;;;;;6.60;5.90;;;14.90;99.90;;;;;;5066010;28;20051;-89
2021/09/18 00:31:18;;;;;;;7.18;5.65;;;14.90;99.90;;;;;;5072439;28;20050;-89
2021/09/18 00:33:47;;;;;;;6.63;5.72;;;14.80;99.90;;;;;;5061533;28;20058;-89
2021/09/18 00:36:13;;;;;;;5.85;5.07;;;14.80;99.90;;;;;;5061243;28;20043;-86
2021/09/18 00:38:40;;;;;;;7.03;4.93;;;14.80;99.90;;;;;;5063929;28;20036;-89
2021/09/18 00:41:10;;;;;;;6.93;5.03;;;14.70;99.90;;;;;;5076885;28;20509;-89
2021/09/18 00:43:37;;;;;;;7.20;5.78;;;14.70;99.90;;;;;;5062663;28;20067;-88
2021/09/18 00:46:07;;;;;;;6.30;5.38;;;14.70;99.90;;;;;;5083911;28;20047;-87
2021/09/18 00:48:34;;;;;;;7.05;4.90;;;14.60;99.90;;;;;;5068501;28;20055;-90
2021/09/18 00:51:03;;;;;;;6.03;5.43;;;14.60;99.90;;;;;;5059426;28;20070;-88
2021/09/18 00:53:31;;;;;;;5.40;4.70;;;14.60;99.90;;;;;;5086934;28;20032;-89
2021/09/18 00:56:01;;;;;;;6.78;4.47;;;14.50;99.90;;;;;;5065297;28;20062;-88
2021/09/18 00:58:27;;;;;;;5.18;4.20;;;14.50;99.90;;;;;;5075678;28;20039;-88
2021/09/18 01:00:56;;;;;;;7.32;4.40;;;14.50;99.90;;;;;;5066803;28;20047;-87
2021/09/18 01:03:22;;;;;;;5.25;3.67;;;14.50;99.90;;;;;;5082766;28;20043;-86
2021/09/18 01:05:49;;;;;;;5.65;3.60;;;14.50;99.90;;;;;;5100113;28;20042;-87
2021/09/18 01:08:20;;;;;;;5.20;3.63;;;14.50;99.90;;;;;;5084448;28;20058;-87
2021/09/18 01:10:46;;;;;;;4.38;3.60;;;14.50;99.90;;;;;;5052438;28;20046;-87
2021/09/18 01:13:17;;;;;;;5.38;3.83;;;14.50;99.90;;;;;;5061519;28;20040;-87
2021/09/18 01:15:45;;;;;;;4.93;3.35;;;14.50;99.90;;;;;;5061972;28;20039;-87
2021/09/18 01:18:12;;;;;;;5.75;3.05;;;14.40;99.90;;;;;;5078758;28;20520;-87
2021/09/18 01:20:42;;;;;;;4.80;3.22;;;14.40;99.90;;;;;;5078494;28;20044;-87
2021/09/18 01:23:13;;;;;;;5.50;4.43;;;14.40;99.90;;;;;;5092344;28;20028;-87
2021/09/18 01:25:40;;;;;;;7.90;4.70;;;14.40;99.90;;;;;;5091081;28;20028;-87
2021/09/18 01:28:07;;;;;;;7.13;5.45;;;14.40;99.90;;;;;;5082757;28;20040;-86
2021/09/18 01:30:35;;;;;;;6.95;6.07;;;14.40;99.90;;;;;;5056798;28;20055;-87
2021/09/18 01:33:03;;;;;;;9.25;6.00;;;14.40;99.90;;;;;;5056446;28;20036;-87
2021/09/18 01:35:32;;;;;;;6.78;5.38;;;14.40;99.90;;;;;;5067185;28;20036;-87
2021/09/18 01:37:59;;;;;;;8.25;5.32;;;14.40;99.90;;;;;;5074036;28;20062;-87
2021/09/18 01:40:44;;;;;;;6.18;4.95;;;14.40;99.90;;;;;;5065067;28;20040;-86
2021/09/18 01:43:11;;;;;;;6.63;4.85;;;14.40;99.90;;;;;;5069282;28;20051;-87
2021/09/18 01:45:41;;;;;;;8.98;4.85;;;14.30;99.90;;;;;;5065052;28;20039;-87
2021/09/18 01:48:11;;;;;;;4.90;4.38;;;14.40;99.90;;;;;;5079200;28;20038;-86
2021/09/18 01:50:59;;;;;;;7.72;4.43;;;14.40;99.90;;;;;;5066788;28;20383;-87
2021/09/18 01:53:27;;;;;;;6.10;3.60;;;14.40;99.90;;;;;;5080682;28;20486;-87
2021/09/18 01:55:54;;;;;;;6.32;4.65;;;14.30;99.90;;;;;;5088632;28;20388;-86
2021/09/18 01:58:21;;;;;;;5.43;4.70;;;14.30;99.90;;;;;;5064904;28;20047;-87
2021/09/18 02:00:54;;;;;;;6.40;4.28;;;14.30;99.90;;;;;;5058114;28;20040;-87
2021/09/18 02:03:21;;;;;;;7.68;4.85;;;14.30;99.90;;;;;;5075992;28;20491;-87
2021/09/18 02:05:48;;;;;;;6.65;5.15;;;14.40;99.90;;;;;;5084080;28;20039;-87
2021/09/18 02:08:15;;;;;;;5.20;3.88;;;14.30;99.90;;;;;;5064970;28;20051;-87
2021/09/18 02:10:42;;;;;;;5.60;4.15;;;14.30;99.90;;;;;;5076199;28;20081;-87
2021/09/18 02:13:11;;;;;;;8.52;4.80;;;14.30;99.90;;;;;;5060912;28;20494;-86
2021/09/18 02:15:38;;;;;;;7.38;4.50;;;14.30;99.90;;;;;;5072787;28;20044;-86
2021/09/18 02:18:09;;;;;;;8.55;4.68;;;14.30;99.90;;;;;;5066947;28;20379;-87
2021/09/18 02:20:37;;;;;;;9.52;6.20;;;14.40;99.90;;;;;;5086210;28;20028;-87
2021/09/18 02:23:05;;;;;;;11.05;9.55;;;14.40;99.90;;;;;;5090864;28;20039;-86
2021/09/18 02:25:40;;;;;;;12.10;9.88;;;14.30;99.90;;;;;;5091250;28;20456;-86
2021/09/18 02:28:06;;;;;;;11.45;9.18;;;14.30;99.90;;;;;;5087724;28;20028;-86
2021/09/18 02:30:34;;;;;;;10.32;7.82;;;14.30;99.90;;;;;;5048506;28;20048;-87
2021/09/18 02:33:02;;;;;;;9.65;7.88;;;14.30;99.90;;;;;;5094677;28;20032;-86
2021/09/18 02:35:30;;;;;;;10.90;7.20;;;14.30;99.90;;;;;;5081898;28;20035;-86
2021/09/18 02:37:59;;;;;;;10.70;7.55;;;14.30;99.90;;;;;;5059575;28;20345;-87
2021/09/18 02:40:26;;;;;;;11.23;7.35;;;14.20;99.90;;;;;;5064139;28;20043;-86
2021/09/18 02:42:57;;;;;;;13.10;9.07;;;14.30;99.90;;;;;;5058838;28;20402;-86
2021/09/18 02:45:24;;;;;;;14.45;9.07;;;14.30;99.90;;;;;;5078985;28;20043;-86
2021/09/18 02:47:51;;;;;;;12.73;9.80;;;14.20;99.90;;;;;;5071490;28;20047;-85
2021/09/18 02:50:19;;;;;;;14.70;10.77;;;14.20;99.90;;;;;;5075063;28;20048;-86
2021/09/18 02:52:46;;;;;;;14.25;10.30;;;14.20;99.90;;;;;;5065206;28;20394;-86
2021/09/18 02:55:13;;;;;;;15.02;10.55;;;14.30;99.90;;;;;;5084281;28;20040;-87
2021/09/18 02:57:40;;;;;;;15.80;11.00;;;14.30;99.90;;;;;;5055148;28;20044;-86
2021/09/18 03:00:09;;;;;;;15.95;10.88;;;14.30;99.90;;;;;;5080193;28;20047;-86
2021/09/18 03:02:36;;;;;;;15.23;11.60;;;14.30;99.90;;;;;;5065930;28;20055;-87
2021/09/18 03:05:06;;;;;;;13.02;10.80;;;14.20;99.90;;;;;;5063641;28;20044;-87
2021/09/18 03:07:32;;;;;;;16.92;12.13;;;14.30;99.90;;;;;;5031371;28;20063;-87
2021/09/18 03:09:59;;;;;;;15.60;11.45;;;14.20;99.90;;;;;;5084641;28;20484;-90
2021/09/18 03:12:26;;;;;;;11.43;9.73;;;14.20;99.90;;;;;;5061397;28;20051;-90
2021/09/18 03:14:52;;;;;;;11.85;9.45;;;14.10;99.90;;;;;;5064531;28;20043;-89
2021/09/18 03:17:19;;;;;;;15.57;11.48;;;14.10;99.90;;;;;;5071219;28;20044;-88
2021/09/18 03:19:51;;;;;;;18.10;11.90;;;14.10;99.90;;;;;;5066895;28;20044;-90
2021/09/18 03:22:20;;;;;;;17.23;12.43;;;14.10;99.90;;;;;;5059512;28;20059;-90
2021/09/18 03:24:47;;;;;;;19.08;13.55;;;14.10;99.90;;;;;;5051764;28;20051;-90
2021/09/18 03:27:14;;;;;;;17.85;12.25;;;14.10;99.90;;;;;;5081850;28;20043;-90
2021/09/18 03:29:41;;;;;;;15.50;10.65;;;14.00;99.90;;;;;;5056368;28;20487;-89
2021/09/18 03:32:09;;;;;;;15.98;10.93;;;14.00;99.90;;;;;;5054607;28;20044;-89
2021/09/18 03:34:36;;;;;;;16.95;10.32;;;14.00;99.90;;;;;;5066560;28;20055;-89
2021/09/18 03:37:03;;;;;;;15.88;10.93;;;13.90;99.90;;;;;;5069322;28;20044;-88
2021/09/18 03:39:30;;;;;;;14.50;10.38;;;13.90;99.90;;;;;;5066647;28;20052;-90
2021/09/18 03:41:56;;;;;;;16.42;11.05;;;13.80;99.90;;;;;;5053865;28;20040;-89
2021/09/18 03:44:23;;;;;;;20.92;13.18;;;13.80;99.90;;;;;;5049674;28;20949;-89
2021/09/18 03:46:50;;;;;;;21.75;13.13;;;13.70;99.90;;;;;;5042401;28;20039;-90
2021/09/18 03:49:17;;;;;;;16.45;11.82;;;13.70;99.90;;;;;;5078675;28;20039;-90
2021/09/18 03:51:44;;;;;;;19.40;13.45;;;13.70;99.90;;;;;;5062606;28;20391;-89
2021/09/18 03:54:10;;;;;;;17.17;12.68;;;13.70;99.90;;;;;;5075293;28;20055;-89
2021/09/18 03:56:37;;;;;;;20.67;13.07;;;13.70;99.90;;;;;;5044233;28;20051;-88
2021/09/18 03:59:03;;;;;;;22.77;15.02;;;13.70;99.90;;;;;;5063299;28;20035;-89
2021/09/18 04:01:30;;;;;;;19.58;14.52;;;13.60;99.90;;;;;;5074692;28;20074;-89
2021/09/18 04:03:59;;;;;;;20.45;14.18;;;13.60;99.90;;;;;;5094337;28;20604;-90
2021/09/18 04:06:26;;;;;;;18.67;14.48;;;13.60;99.90;;;;;;5069553;28;20056;-90
2021/09/18 04:08:56;;;;;;;21.85;14.45;;;13.60;99.90;;;;;;5046358;28;20512;-90
2021/09/18 04:11:22;;;;;;;19.88;14.27;;;13.60;99.90;;;;;;5062808;28;20628;-91
2021/09/18 04:13:51;;;;;;;17.88;13.07;;;13.60;99.90;;;;;;5064174;28;20058;-89
2021/09/18 04:16:20;;;;;;;18.80;13.52;;;13.60;99.90;;;;;;5073571;28;21158;-88
2021/09/18 04:18:47;;;;;;;19.35;13.82;;;13.60;99.90;;;;;;5052214;28;20038;-89
2021/09/18 04:21:15;;;;;;;18.75;13.35;;;13.50;99.90;;;;;;5044471;28;20051;-88
2021/09/18 04:23:42;;;;;;;19.10;13.43;;;13.50;99.90;;;;;;5091506;28;20036;-89
2021/09/18 04:26:09;;;;;;;17.00;12.38;;;13.50;99.90;;;;;;5091155;28;20363;-89
2021/09/18 04:28:35;;;;;;;17.77;12.50;;;13.50;99.90;;;;;;5067780;28;20127;-89
2021/09/18 04:31:02;;;;;;;15.77;11.57;;;13.50;99.90;;;;;;5094787;28;20031;-88
2021/09/18 04:33:30;;;;;;;16.83;11.50;;;13.50;99.90;;;;;;5076629;28;20122;-88
2021/09/18 04:35:56;;;;;;;16.15;12.45;;;13.50;99.90;;;;;;5073297;28;20036;-89
2021/09/18 04:38:23;;;;;;;15.63;11.40;;;13.50;99.90;;;;;;5095506;28;20035;-89
2021/09/18 04:40:50;;;;;;;14.90;11.40;;;13.50;99.90;;;;;;5068063;28;20048;-89
2021/09/18 04:43:16;;;;;;;16.10;10.25;;;13.40;99.90;;;;;;5058200;28;20055;-90
2021/09/18 04:45:43;;;;;;;16.08;10.93;;;13.40;99.90;;;;;;5061069;28;20044;-89
2021/09/18 04:48:09;;;;;;;13.15;9.30;;;13.40;99.90;;;;;;5062387;28;20048;-89
2021/09/18 04:50:36;;;;;;;13.55;9.50;;;13.30;99.90;;;;;;5052717;28;20056;-89
2021/09/18 04:53:03;;;;;;;12.75;9.00;;;13.30;99.90;;;;;;5098596;28;20023;-89
2021/09/18 04:55:29;;;;;;;11.63;8.82;;;13.30;99.90;;;;;;5071076;28;20039;-90
2021/09/18 04:57:56;;;;;;;14.43;9.15;;;13.30;99.90;;;;;;5062287;28;20062;-89
2021/09/18 05:00:22;;;;;;;13.00;9.15;;;13.30;99.90;;;;;;5063103;28;20052;-89
2021/09/18 05:02:49;;;;;;;12.20;8.43;;;13.20;99.90;;;;;;5065782;28;20048;-88
2021/09/18 05:05:16;;;;;;;10.27;7.68;;;13.20;99.90;;;;;;5059870;28;20040;-90
2021/09/18 05:07:42;;;;;;;11.60;8.57;;;13.20;99.90;;;;;;5087556;28;20039;-89
2021/09/18 05:10:09;;;;;;;13.38;8.90;;;13.10;99.90;;;;;;5047042;28;20125;-89
2021/09/18 05:12:36;;;;;;;10.50;8.30;;;13.10;99.90;;;;;;5067107;28;20060;-89
2021/09/18 05:15:04;;;;;;;12.40;8.73;;;13.10;99.90;;;;;;5056267;28;20051;-89
2021/09/18 05:17:31;;;;;;;11.48;8.60;;;13.10;99.90;;;;;;5071493;28;20046;-91
2021/09/18 05:20:18;;;;;;;9.98;8.32;;;13.10;99.90;;;;;;5064335;28;20118;-90
2021/09/18 05:22:53;;;;;;;9.50;7.65;;;13.10;99.90;;;;;;5050913;28;20040;-90
2021/09/18 05:29:54;;;;;;;;;;;;;;;;;;;;;
2021/09/18 05:32:57;;;;;;;8.65;7.20;;;13.00;99.90;;;;;;4986799;28;20049;-92
2021/09/18 05:40:07;;;;;;;10.10;7.45;;;13.00;99.90;;;;;;4986042;28;20387;-90
2021/09/18 05:43:21;;;;;;;9.13;7.65;;;13.00;99.90;;;;;;5007433;28;20051;-91
2021/09/18 05:46:28;;;;;;;8.23;7.05;;;13.10;99.90;;;;;;4955961;28;20094;-88
2021/09/18 05:50:11;;;;;;;;;;;;;;;;;;;;;
2021/09/18 05:53:17;;;;;;;;;;;;;;;;;;;;;
2021/09/18 06:01:30;;;;;;;8.55;7.38;;;13.20;99.90;;;;;;5066609;28;20211;-90
2021/09/18 06:04:03;;;;;;;10.15;8.38;;;13.30;99.90;;;;;;5005161;28;20060;-92
2021/09/18 06:06:45;;;;;;;8.77;7.88;;;13.30;99.90;;;;;;4997813;28;20052;-86
2021/09/18 06:09:37;;;;;;;8.45;7.55;;;13.30;99.90;;;;;;5025750;28;20033;-90
2021/09/18 06:12:15;;;;;;;8.45;7.32;;;13.40;99.90;;;;;;5001224;28;20435;-88
2021/09/18 06:15:16;;;;;;;9.40;7.50;;;13.50;99.90;;;;;;5018948;28;20046;-92
2021/09/18 06:18:07;;;;;;;8.05;7.15;;;13.60;99.90;;;;;;5014103;28;20052;-88
2021/09/18 06:20:54;;;;;;;8.43;7.53;;;13.70;99.90;;;;;;5032608;28;20051;-86
2021/09/18 06:23:23;;;;;;;10.30;8.82;;;13.70;99.90;;;;;;5049346;28;20059;-86
2021/09/18 06:25:51;;;;;;;21.88;9.52;;;13.80;99.90;;;;;;5009421;28;20053;-86
2021/09/18 06:28:18;;;;;;;9.65;8.65;;;13.80;99.90;;;;;;5024094;28;20033;-85
2021/09/18 06:30:46;;;;;;;13.57;9.60;;;13.80;99.90;;;;;;5043607;28;20051;-85
2021/09/18 06:33:12;;;;;;;30.50;10.02;;;13.80;99.90;;;;;;5014788;28;20041;-85
2021/09/18 06:35:39;;;;;;;14.50;10.52;;;13.80;99.90;;;;;;5045650;28;20383;-88
2021/09/18 06:38:05;;;;;;;17.63;8.75;;;13.90;99.90;;;;;;5058542;28;20036;-87
2021/09/18 06:40:32;;;;;;;11.20;9.40;;;14.00;99.90;;;;;;5089808;28;20048;-88
2021/09/18 06:42:59;;;;;;;16.33;10.02;;;14.10;99.90;;;;;;5036863;28;20060;-87
2021/09/18 06:45:28;;;;;;;24.23;8.90;;;14.10;99.90;;;;;;5061641;28;20046;-87
2021/09/18 06:47:57;;;;;;;31.63;9.25;;;14.10;99.90;;;;;;5069935;28;20055;-87
2021/09/18 06:50:24;;;;;;;9.18;8.07;;;14.20;99.90;;;;;;5086400;28;20517;-87
2021/09/18 06:52:50;;;;;;;9.20;8.18;;;14.20;99.90;;;;;;5068547;28;20593;-87
2021/09/18 06:55:17;;;;;;;11.45;9.27;;;14.30;99.90;;;;;;5090535;28;20036;-87
2021/09/18 06:57:43;;;;;;;12.60;9.73;;;14.40;99.90;;;;;;5056646;28;20040;-87
2021/09/18 07:00:10;;;;;;;10.48;9.35;;;14.50;99.90;;;;;;5058297;28;20043;-87
2021/09/18 07:02:36;;;;;;;10.20;9.20;;;14.60;99.90;;;;;;5074422;28;20521;-87
2021/09/18 07:05:04;;;;;;;10.52;9.43;;;14.70;99.90;;;;;;5080209;28;20066;-87
2021/09/18 07:07:33;;;;;;;13.00;9.40;;;14.80;99.90;;;;;;5090936;28;20036;-87
2021/09/18 07:09:59;;;;;;;13.10;8.65;;;14.90;99.90;;;;;;5059414;28;20052;-87
2021/09/18 07:12:26;;;;;;;11.55;9.88;;;15.00;99.90;;;;;;5068067;28;20063;-87
2021/09/18 07:14:55;;;;;;;9.05;8.15;;;15.00;99.90;;;;;;5067580;28;20055;-86
2021/09/18 07:17:21;;;;;;;21.90;10.25;;;15.10;99.90;;;;;;5076579;28;20040;-87
2021/09/18 07:19:48;;;;;;;10.30;8.73;;;15.20;99.90;;;;;;5091837;28;20043;-87
2021/09/18 07:22:17;;;;;;;15.73;8.80;;;15.30;99.90;;;;;;5066332;28;20048;-87
2021/09/18 07:24:44;;;;;;;10.93;9.02;;;15.40;99.90;;;;;;5048627;28;20055;-86
2021/09/18 07:27:10;;;;;;;58.22;10.45;;;15.40;99.90;;;;;;5055553;28;20044;-86
2021/09/18 07:29:37;;;;;;;42.95;9.48;;;15.50;99.90;;;;;;5039958;28;20628;-87
2021/09/18 07:32:03;;;;;;;29.30;7.97;;;15.60;99.90;;;;;;5054440;28;20824;-86
2021/09/18 07:34:30;;;;;;;31.77;9.18;;;15.70;99.90;;;;;;5055242;28;20054;-86
2021/09/18 07:36:56;;;;;;;12.30;9.13;;;15.70;99.90;;;;;;5084207;28;20515;-86
2021/09/18 07:39:23;;;;;;;14.48;8.43;;;15.70;99.90;;;;;;5061987;28;20044;-86
2021/09/18 07:41:50;;;;;;;25.92;9.15;;;15.80;99.90;;;;;;5071817;28;20043;-87
2021/09/18 07:44:16;;;;;;;14.20;8.93;;;15.90;99.90;;;;;;5095665;28;20043;-85
2021/09/18 07:46:43;;;;;;;17.75;8.73;;;16.00;99.90;;;;;;5057485;28;20048;-86
2021/09/18 07:49:09;;;;;;;11.48;8.13;;;16.10;99.90;;;;;;5084165;28;20482;-86
2021/09/18 07:51:39;;;;;;;9.88;8.15;;;16.30;99.90;;;;;;5053056;28;20044;-86
2021/09/18 07:54:05;;;;;;;9.45;8.55;;;16.50;99.90;;;;;;5080513;28;20470;-86
2021/09/18 07:56:32;;;;;;;9.93;8.77;;;16.70;99.90;;;;;;5098015;28;20043;-87
2021/09/18 07:58:58;;;;;;;11.15;10.02;;;16.80;99.90;;;;;;5075162;28;20040;-87
2021/09/18 08:01:30;;;;;;;9.35;8.45;;;16.90;99.90;;;;;;5092871;28;20466;-87
2021/09/18 08:04:03;;;;;;;9.57;8.67;;;17.10;99.90;;;;;;5068841;28;20043;-87
2021/09/18 08:06:36;;;;;;;9.23;8.32;;;17.30;99.90;;;;;;5046659;28;20044;-87
2021/09/18 08:09:04;;;;;;;9.73;8.70;;;17.40;99.90;;;;;;5075367;28;20410;-87
2021/09/18 08:11:34;;;;;;;10.52;9.52;;;17.60;99.90;;;;;;5061128;28;20044;-86
2021/09/18 08:14:02;;;;;;;9.73;8.75;;;17.70;99.90;;;;;;5060347;28;20410;-84
2021/09/18 08:16:33;;;;;;;9.50;8.52;;;17.80;99.90;;;;;;5062478;28;20514;-85
2021/09/18 08:19:00;;;;;;;7.57;6.88;;;17.90;99.90;;;;;;5068060;28;20044;-87
2021/09/18 08:21:32;;;;;;;7.57;6.88;;;18.00;99.90;;;;;;5071061;28;20047;-86
2021/09/18 08:24:04;;;;;;;5.72;5.22;;;18.10;99.90;;;;;;5093623;28;20068;-86
2021/09/18 08:27:02;;;;;;;7.00;6.30;;;18.30;99.90;;;;;;5069743;28;20238;-86
2021/09/18 08:29:32;;;;;;;7.60;6.90;;;18.40;99.90;;;;;;5056661;28;20052;-86
2021/09/18 08:32:01;;;;;;;7.53;6.82;;;18.50;99.90;;;;;;5061085;28;20044;-87
2021/09/18 08:34:37;;;;;;;7.90;7.20;;;18.60;99.90;;;;;;5059049;28;20040;-86
2021/09/18 08:37:09;;;;;;;9.90;8.90;;;18.70;99.90;;;;;;5055188;28;20051;-86
2021/09/18 08:39:45;;;;;;;8.50;7.70;;;18.80;99.90;;;;;;5050425;28;20055;-86
2021/09/18 08:42:18;;;;;;;7.60;6.90;;;18.80;99.90;;;;;;5085127;28;20411;-87
2021/09/18 08:44:54;;;;;;;7.68;6.97;;;18.90;99.90;;;;;;5087268;28;20036;-87
2021/09/18 08:47:29;;;;;;;8.43;7.72;;;19.10;99.90;;;;;;5057604;28;20051;-86
2021/09/18 08:50:08;;;;;;;8.38;7.53;;;19.20;99.90;;;;;;5058447;28;20044;-87
2021/09/18 08:52:37;;;;;;;9.93;8.93;;;19.40;99.90;;;;;;5055887;28;20044;-86
2021/09/18 08:55:27;;;;;;;8.80;7.95;;;19.50;99.90;;;;;;5067444;28;20040;-87
2021/09/18 08:58:05;;;;;;;10.15;9.15;;;19.70;99.90;;;;;;5041446;28;20059;-87
2021/09/18 09:00:35;;;;;;;10.65;8.80;;;19.70;99.90;;;;;;5055414;28;20044;-87
2021/09/18 09:03:18;;;;;;;;;;;;;;;;;;;;;
2021/09/18 09:06:14;;;;;;;11.13;10.02;;;19.70;99.90;;;;;;5062914;28;20060;-86
2021/09/18 09:09:00;;;;;;;9.70;8.70;;;19.70;99.90;;;;;;5045017;28;20044;-86
2021/09/18 09:11:29;;;;;;;9.25;8.20;;;19.80;99.90;;;;;;5029518;28;20048;-87
2021/09/18 09:14:18;;;;;;;12.98;10.73;;;20.00;99.90;;;;;;5023893;28;20052;-86
2021/09/18 09:17:05;;;;;;;10.20;9.15;;;20.10;99.90;;;;;;5047224;28;20404;-87
2021/09/18 09:19:51;;;;;;;14.77;13.27;;;20.30;99.90;;;;;;5028339;28;20045;-87
2021/09/18 09:22:49;;;;;;;13.27;11.88;;;20.50;99.90;;;;;;5019955;28;20053;-87
2021/09/18 09:25:49;;;;;;;17.50;15.25;;;20.60;99.90;;;;;;5026164;28;20454;-87
2021/09/18 09:28:42;;;;;;;11.52;10.43;;;20.70;99.90;;;;;;5051397;28;20055;-87
2021/09/18 09:31:25;;;;;;;14.25;12.75;;;20.70;99.90;;;;;;5034687;28;20036;-86
2021/09/18 09:37:01;;;;;;;17.27;14.55;;;20.80;99.90;;;;;;5021369;28;20887;-87
2021/09/18 09:39:31;;;;;;;14.88;12.88;;;20.90;99.90;;;;;;5069037;27;20435;-86
2021/09/18 09:42:05;;;;;;;15.13;13.57;;;21.00;99.90;;;;;;5084696;28;20490;-86
2021/09/18 09:44:52;;;;;;;16.55;14.68;;;21.20;99.90;;;;;;5074655;28;20043;-87
2021/09/18 09:47:26;;;;;;;19.33;17.33;;;21.30;99.90;;;;;;5076658;28;20532;-86
2021/09/18 09:49:57;;;;;;;17.65;15.75;;;21.40;99.90;;;;;;5077078;28;20044;-87
2021/09/18 09:52:25;;;;;;;19.45;17.38;;;21.50;99.90;;;;;;5085982;28;20044;-86
2021/09/18 09:55:00;;;;;;;16.95;15.18;;;21.60;99.90;;;;;;5059035;28;20047;-86
2021/09/18 09:57:32;;;;;;;16.33;13.70;;;21.70;99.90;;;;;;5084686;28;20537;-85
2021/09/18 10:00:06;;;;;;;19.88;17.45;;;21.80;99.90;;;;;;5077323;28;20040;-86
2021/09/18 10:02:34;;;;;;;19.17;16.23;;;21.90;99.90;;;;;;5078086;28;20066;-86
2021/09/18 10:05:01;;;;;;;21.58;19.20;;;22.10;99.90;;;;;;5060628;28;20059;-87
2021/09/18 10:07:28;;;;;;;22.05;19.27;;;22.20;99.90;;;;;;5047705;28;20067;-86
2021/09/18 10:09:59;;;;;;;19.38;17.38;;;22.20;99.90;;;;;;5055655;28;20585;-86
2021/09/18 10:12:29;;;;;;;20.55;18.35;;;22.40;99.90;;;;;;5062963;28;20430;-86
2021/09/18 10:15:19;;;;;;;;;;;22.50;99.90;;;;;;5058796;28;20047;-87
2021/09/18 10:18:33;;;;;;;21.92;18.85;;;22.70;99.90;;;;;;5099131;28;19911;-86
2021/09/18 10:24:01;;;;;;;21.83;19.60;;;23.10;99.90;;;;;;5090037;28;20032;-87
2021/09/18 10:26:31;;;;;;;25.90;23.13;;;23.40;99.90;;;;;;5053693;28;20406;-87
2021/09/18 10:29:01;;;;;;;22.50;20.10;;;23.50;99.90;;;;;;5054100;28;20510;-86
2021/09/18 10:31:30;;;;;;;22.88;20.58;;;23.70;99.90;;;;;;5064657;28;20043;-87
2021/09/18 10:34:20;;;;;;;21.73;19.45;;;23.90;99.90;;;;;;5088662;28;20062;-87
2021/09/18 10:36:48;;;;;;;23.15;20.83;;;24.20;99.80;;;;;;5057369;28;20514;-86
2021/09/18 10:39:18;;;;;;;21.23;18.77;;;24.50;99.10;;;;;;5069768;28;20040;-86
2021/09/18 10:41:47;;;;;;;22.20;19.95;;;24.50;98.50;;;;;;5064004;28;20043;-86
2021/09/18 10:44:16;;;;;;;23.73;21.20;;;24.60;98.10;;;;;;5072035;28;20036;-87
2021/09/18 10:46:54;;;;;;;22.83;20.52;;;24.80;97.60;;;;;;5060087;28;20044;-86
2021/09/18 10:49:36;;;;;;;21.05;18.90;;;25.00;96.90;;;;;;5087235;28;20036;-86
2021/09/18 10:52:25;;;;;;;;;;;25.20;96.60;;;;;;5074307;28;20043;-86
2021/09/18 10:55:12;;;;;;;25.58;22.88;;;25.30;96.10;;;;;;5077952;27;20406;-86
2021/09/18 11:08:23;;;;;;;20.70;18.70;;;25.40;95.40;;;;;;5084348;27;20769;-86
2021/09/18 11:11:12;;;;;;;22.33;19.77;;;26.10;94.60;;;;;;5041552;28;20405;-85
2021/09/18 11:14:00;;;;;;;22.48;20.17;;;26.50;93.70;;;;;;5144605;27;20364;-85
2021/09/18 11:16:50;;;;;;;22.65;20.27;;;26.80;92.60;;;;;;5110790;27;20734;-85
2021/09/18 11:19:54;;;;;;;24.35;21.85;;;27.00;92.00;;;;;;5067315;28;20688;-86
2021/09/18 11:33:01;;;;;;;22.25;20.05;;;27.30;91.20;;;;;;5074393;28;20366;-84
2021/09/18 11:46:10;;;;;;;22.25;19.95;;;28.10;88.00;;;;;;6190229;22;1461942;-85
2021/09/18 11:59:18;;;;;;;23.00;20.67;;;28.50;83.30;;;;;;5122642;27;20897;-86
2021/09/18 12:02:03;;;;;;;26.30;23.90;;;28.30;81.80;;;;;;5052989;27;1429480;-84
2021/09/18 12:04:48;;;;;;;21.20;19.20;;;28.00;81.00;;;;;;5092035;27;20397;-84
2021/09/18 12:07:34;;;;;;;20.08;18.13;;;27.90;81.80;;;;;;5056800;27;1349024;-85
2021/09/18 12:10:24;;;;;;;22.90;20.60;;;27.90;82.10;;;;;;5153821;27;20118;-85
2021/09/18 12:13:08;;;;;;;21.42;19.30;;;28.20;81.40;;;;;;5039314;28;20410;-85
2021/09/18 12:15:53;;;;;;;19.75;17.75;;;28.50;81.00;;;;;;5113010;27;20903;-86
2021/09/18 12:18:57;;;;;;;25.45;22.85;;;28.90;80.50;;;;;;5129670;27;20116;-89
2021/09/18 12:22:46;;;;;;;;;;;;;;;;;;;;;
2021/09/18 12:36:28;;;;;;;16.55;14.95;;;29.40;78.80;;;;;;6178804;22;1609653;-90
2021/09/18 12:49:46;;;;;;;15.03;13.47;;;30.70;70.40;;;;;;6058623;22;4082531;-90
2021/09/18 13:19:01;;;;;;;9.77;8.88;;;30.50;69.10;;;;;;6093429;22;1649612;-90
2021/09/18 13:34:48;;;;;;;8.15;7.35;;;31.70;61.00;;;;;;5928481;22;5503113;-89
2021/09/18 13:48:07;;;;;;;7.13;6.53;;;32.00;60.20;;;;;;5359511;22;21990575;-91
2021/09/18 14:09:20;;;;;;;;;;;;;;;;;;;;;
2021/09/18 14:13:01;;;;;;;;;;;;;;;;;;;;;
2021/09/18 14:49:34;;;;;;;5.88;5.28;;;23.80;77.80;;;;;;5853903;22;6895736;-90
2021/09/18 15:02:59;;;;;;;;;;;;;;;;;;;;;
2021/09/18 15:16:23;;;;;;;5.95;5.35;;;23.90;79.40;;;;;;6087048;22;3719317;-90
2021/09/18 15:29:43;;;;;;;5.75;4.30;;;23.70;79.50;;;;;;5742925;22;13689111;-92
2021/09/18 15:42:59;;;;;;;4.80;4.20;;;23.40;80.30;;;;;;6245984;22;1606528;-89
2021/09/18 15:58:45;;;;;;;3.97;2.80;;;22.10;86.50;;;;;;6158870;22;2265435;-89
2021/09/18 16:01:42;;;;;;;4.78;3.88;;;22.10;86.90;;;;;;5107454;27;20398;-91
2021/09/18 16:14:54;;;;;;;6.57;4.43;;;22.00;86.80;;;;;;5884265;22;6781147;-87
2021/09/18 16:17:41;;;;;;;6.25;3.85;;;21.50;88.20;;;;;;4553711;27;15483280;-87
2021/09/18 16:20:57;;;;;;;4.22;2.63;;;21.30;88.20;;;;;;5120358;27;20347;-92
2021/09/18 16:55:37;;;;;;;3.08;2.38;;;20.40;91.90;;;;;;5760335;22;10158991;-88
2021/09/18 17:38:58;;;;;;;6.25;4.35;;;18.90;95.10;;;;;;4831635;22;32202499;-86
2021/09/18 18:02:32;;;;;;;4.10;3.45;;;18.30;96.50;;;;;;6128489;22;1503139;-87
2021/09/18 18:05:21;;;;;;;4.55;3.55;;;18.20;96.60;;;;;;5096244;27;20409;-89
2021/09/18 19:31:24;;;;;;;4.07;1.77;;;16.70;98.70;;;;;;5512673;22;15167355;-90
2021/09/18 19:35:01;;;;;;;2.20;1.70;;;16.70;98.80;;;;;;6125941;23;20029;-90
2021/09/18 19:39:38;;;;;;;;;;;;;;;;;;;;;
2021/09/18 19:43:04;;;;;;;4.13;1.85;;;16.60;98.90;;;;;;5780829;24;20027;-90
2021/09/18 19:46:22;;;;;;;3.80;1.88;;;16.60;99.00;;;;;;5738338;24;20008;-90
2021/09/18 19:55:16;;;;;;;;;;;;;;;;;;;;;
2021/09/18 20:02:34;;;;;;;;;;;;;;;;;;;;;
2021/09/18 20:06:33;;;;;;;3.08;1.45;;;16.50;99.50;;;;;;5773377;24;20434;-89
2021/09/18 20:10:07;;;;;;;2.20;1.38;;;16.40;99.60;;;;;;5775384;24;20023;-89
2021/09/18 20:13:38;;;;;;;2.03;1.35;;;16.30;99.70;;;;;;5890623;24;20017;-92
2021/09/18 20:16:47;;;;;;;;;;;;;;;;;;;;;
2021/09/18 20:20:06;;;;;;;2.33;1.58;;;16.20;99.80;;;;;;5916549;24;20234;-91
2021/09/18 20:23:29;;;;;;;2.88;1.52;;;16.20;99.90;;;;;;5921045;24;20013;-90
2021/09/18 20:35:40;;;;;;;2.60;1.10;;;16.10;99.90;;;;;;5849790;24;20026;-93
2021/09/18 20:38:41;;;;;;;1.60;1.00;;;16.00;99.90;;;;;;5812443;24;20018;-92
2021/09/18 20:41:20;;;;;;;2.15;1.40;;;15.90;99.90;;;;;;5848426;24;20448;-92
2021/09/18 20:44:37;;;;;;;1.92;1.08;;;15.90;99.90;;;;;;5872459;24;20009;-91
2021/09/18 20:52:22;;;;;;;;;;;;;;;;;;;;;
2021/09/18 20:54:49;;;;;;;2.08;1.50;;;15.80;99.90;;;;;;5902421;24;20020;-93
2021/09/18 21:04:56;;;;;;;3.60;1.65;;;15.80;99.90;;;;;;5894855;24;20016;-92
2021/09/18 21:12:02;;;;;;;2.28;1.40;;;15.70;99.90;;;;;;5920090;24;20012;-92
2021/09/18 21:15:14;;;;;;;2.30;1.50;;;15.60;99.90;;;;;;5987903;23;20527;-93
2021/09/18 21:23:25;;;;;;;1.92;1.20;;;15.50;99.90;;;;;;5930800;24;20017;-93
2021/09/18 21:26:26;;;;;;;2.75;1.35;;;15.50;99.90;;;;;;5902379;24;20010;-89
2021/09/18 21:37:56;;;;;;;2.75;1.65;;;15.30;99.90;;;;;;5869791;23;20027;-93
2021/09/18 21:40:26;;;;;;;2.50;1.52;;;15.30;99.90;;;;;;6012400;23;20023;-93
2021/09/18 21:43:21;;;;;;;2.95;1.60;;;15.30;99.90;;;;;;5986441;23;20015;-94